Time;durP1;ratioP1;P1;durP2;ratioP2;P2;SDS_P1;SDS_P2;PMS_P1;PMS_P2;Temp;Humidity;BMP_temperature;BMP_pressure;BME280_temperature;BME280_humidity;BME280_pressure;Samples;Min_cycle;Max_cycle;Signal;HPM_P1;HPM_P2
2023/10/20 00:00:44;;;;;;;30.27;19.05;;;8.50;99.90;;;;;;5043700;28;20084;-59
2023/10/20 00:03:10;;;;;;;29.35;18.83;;;8.50;99.90;;;;;;5040128;28;20492;-60
2023/10/20 00:05:36;;;;;;;30.13;18.45;;;8.50;99.90;;;;;;5041023;28;20044;-59
2023/10/20 00:08:02;;;;;;;25.92;17.50;;;8.50;99.90;;;;;;5041614;28;20553;-59
2023/10/20 00:10:32;;;;;;;26.38;18.25;;;8.50;99.90;;;;;;5042129;28;20072;-59
2023/10/20 00:13:01;;;;;;;26.90;17.30;;;8.50;99.90;;;;;;5058534;28;20048;-60
2023/10/20 00:15:30;;;;;;;27.13;17.00;;;8.50;99.90;;;;;;5038982;28;20510;-59
2023/10/20 00:17:56;;;;;;;29.13;17.27;;;8.50;99.90;;;;;;5043994;28;20049;-60
2023/10/20 00:20:22;;;;;;;22.98;15.75;;;8.40;99.90;;;;;;5047242;28;20135;-60
2023/10/20 00:22:47;;;;;;;23.95;16.13;;;8.50;99.90;;;;;;5038625;28;20052;-60
2023/10/20 00:25:13;;;;;;;22.85;16.27;;;8.50;99.90;;;;;;5007823;28;20038;-59
2023/10/20 00:27:41;;;;;;;26.38;16.27;;;8.50;99.90;;;;;;5036216;28;20041;-60
2023/10/20 00:30:07;;;;;;;27.15;17.48;;;8.40;99.90;;;;;;5037477;28;20083;-59
2023/10/20 00:32:34;;;;;;;24.45;16.48;;;8.40;99.90;;;;;;5043540;28;20385;-59
2023/10/20 00:35:03;;;;;;;25.13;16.05;;;8.40;99.90;;;;;;5039572;28;20029;-59
2023/10/20 00:37:31;;;;;;;24.25;17.10;;;8.40;99.90;;;;;;5043592;28;20041;-61
2023/10/20 00:39:57;;;;;;;25.50;17.90;;;8.50;99.90;;;;;;5041422;28;20120;-60
2023/10/20 00:42:23;;;;;;;21.75;15.80;;;8.50;99.90;;;;;;5038347;28;20103;-60
2023/10/20 00:44:49;;;;;;;24.08;15.70;;;8.40;99.90;;;;;;5043380;28;20041;-61
2023/10/20 00:47:16;;;;;;;23.00;15.52;;;8.40;99.90;;;;;;5041075;28;20340;-59
2023/10/20 00:49:45;;;;;;;23.77;16.98;;;8.50;99.90;;;;;;5036688;28;20499;-60
2023/10/20 00:52:15;;;;;;;22.92;16.55;;;8.50;99.90;;;;;;5023670;28;20041;-61
2023/10/20 00:54:44;;;;;;;24.90;16.27;;;8.50;99.90;;;;;;5042793;28;20044;-60
2023/10/20 00:57:12;;;;;;;26.27;17.42;;;8.40;99.90;;;;;;5037625;28;20049;-60
2023/10/20 00:59:38;;;;;;;27.58;16.48;;;8.40;99.90;;;;;;5039677;28;20103;-60
2023/10/20 01:02:04;;;;;;;25.63;17.15;;;8.40;99.90;;;;;;5038518;28;20040;-59
2023/10/20 01:04:30;;;;;;;24.30;16.00;;;8.40;99.90;;;;;;5044660;28;20130;-60
2023/10/20 01:06:56;;;;;;;27.02;17.13;;;8.40;99.90;;;;;;5040139;28;20041;-60
2023/10/20 01:09:26;;;;;;;26.63;17.40;;;8.40;99.90;;;;;;5041493;28;20056;-60
2023/10/20 01:11:52;;;;;;;33.22;17.40;;;8.40;99.90;;;;;;5045168;28;20052;-59
2023/10/20 01:14:18;;;;;;;28.30;18.35;;;8.40;99.90;;;;;;5043852;28;20045;-61
2023/10/20 01:16:44;;;;;;;30.75;17.13;;;8.40;99.90;;;;;;5041521;28;20049;-60
2023/10/20 01:19:10;;;;;;;29.50;17.73;;;8.40;99.90;;;;;;5039094;28;20388;-59
2023/10/20 01:21:36;;;;;;;26.38;17.23;;;8.40;99.90;;;;;;5042872;28;20055;-60
2023/10/20 01:24:04;;;;;;;30.42;18.42;;;8.40;99.90;;;;;;5040104;28;20180;-60
2023/10/20 01:26:33;;;;;;;28.75;18.15;;;8.30;99.90;;;;;;5042499;28;20053;-60
2023/10/20 01:28:59;;;;;;;31.50;18.17;;;8.30;99.90;;;;;;5056512;28;20080;-60
2023/10/20 01:31:26;;;;;;;30.00;18.17;;;8.30;99.90;;;;;;5021085;28;20043;-60
2023/10/20 01:33:52;;;;;;;27.73;17.20;;;8.30;99.90;;;;;;5025554;28;20041;-60
2023/10/20 01:36:18;;;;;;;33.00;18.92;;;8.30;99.90;;;;;;5038080;28;20337;-60
2023/10/20 01:38:46;;;;;;;34.08;17.95;;;8.30;99.90;;;;;;5041412;28;20045;-60
2023/10/20 01:41:12;;;;;;;34.45;18.45;;;8.30;99.90;;;;;;5043677;28;20132;-58
2023/10/20 01:43:38;;;;;;;29.42;17.70;;;8.30;99.90;;;;;;5025307;28;20179;-60
2023/10/20 01:46:04;;;;;;;34.65;19.13;;;8.30;99.90;;;;;;5041230;28;20045;-61
2023/10/20 01:48:32;;;;;;;32.10;19.30;;;8.30;99.90;;;;;;5023339;28;20040;-61
2023/10/20 01:51:00;;;;;;;35.30;19.13;;;8.30;99.90;;;;;;5026251;28;20040;-60
2023/10/20 01:53:26;;;;;;;34.20;19.42;;;8.30;99.90;;;;;;5021891;28;20056;-59
2023/10/20 01:55:52;;;;;;;36.25;20.45;;;8.30;99.90;;;;;;5039304;28;20037;-60
2023/10/20 01:58:21;;;;;;;32.60;19.35;;;8.30;99.90;;;;;;5038201;28;20037;-60
2023/10/20 02:00:50;;;;;;;40.97;20.75;;;8.30;99.90;;;;;;5037923;28;20072;-60
2023/10/20 02:03:17;;;;;;;34.58;20.30;;;8.30;99.90;;;;;;5037515;28;20033;-60
2023/10/20 02:05:43;;;;;;;38.25;22.13;;;8.30;99.90;;;;;;5037462;28;20542;-60
2023/10/20 02:08:09;;;;;;;38.50;20.30;;;8.30;99.90;;;;;;5037205;28;20049;-58
2023/10/20 02:10:35;;;;;;;37.15;20.48;;;8.30;99.90;;;;;;5019856;28;20589;-57
2023/10/20 02:13:02;;;;;;;41.55;22.05;;;8.30;99.90;;;;;;5033787;28;20037;-61
2023/10/20 02:15:29;;;;;;;35.53;18.73;;;8.30;99.90;;;;;;5034719;28;20044;-59
2023/10/20 02:17:56;;;;;;;35.80;19.50;;;8.30;99.90;;;;;;5016876;28;20051;-57
2023/10/20 02:20:25;;;;;;;40.50;21.30;;;8.30;99.90;;;;;;5040420;28;20380;-58
2023/10/20 02:22:52;;;;;;;36.63;20.10;;;8.30;99.90;;;;;;5025500;28;20310;-61
2023/10/20 02:25:19;;;;;;;37.75;22.35;;;8.30;99.90;;;;;;5040729;28;22034;-60
2023/10/20 02:27:47;;;;;;;42.40;23.55;;;8.30;99.90;;;;;;5040878;28;20379;-60
2023/10/20 02:30:13;;;;;;;46.85;24.60;;;8.30;99.90;;;;;;5036418;28;20050;-60
2023/10/20 02:32:39;;;;;;;49.28;24.38;;;8.30;99.90;;;;;;5038750;28;20500;-61
2023/10/20 02:35:06;;;;;;;48.08;25.05;;;8.30;99.90;;;;;;5039764;28;20048;-60
2023/10/20 02:37:32;;;;;;;46.33;23.77;;;8.30;99.90;;;;;;5023718;28;20564;-58
2023/10/20 02:39:58;;;;;;;48.45;24.88;;;8.30;99.90;;;;;;5040875;28;20212;-61
2023/10/20 02:42:23;;;;;;;46.35;23.60;;;8.30;99.90;;;;;;5024772;28;20036;-60
2023/10/20 02:44:49;;;;;;;45.65;25.80;;;8.30;99.90;;;;;;5037131;28;20112;-60
2023/10/20 02:47:15;;;;;;;51.45;24.98;;;8.30;99.90;;;;;;5035352;28;20503;-61
2023/10/20 02:49:41;;;;;;;44.28;24.27;;;8.30;99.90;;;;;;5037350;28;20702;-59
2023/10/20 02:52:07;;;;;;;44.65;23.85;;;8.30;99.90;;;;;;5035255;28;20045;-60
2023/10/20 02:54:34;;;;;;;45.00;23.83;;;8.20;99.90;;;;;;5038041;28;20033;-61
2023/10/20 02:57:00;;;;;;;45.45;23.42;;;8.20;99.90;;;;;;5036693;28;20045;-60
2023/10/20 02:59:25;;;;;;;40.67;23.08;;;8.30;99.90;;;;;;5036201;28;20056;-60
2023/10/20 03:01:54;;;;;;;38.90;22.77;;;8.30;99.90;;;;;;5037753;28;20041;-60
2023/10/20 03:04:19;;;;;;;49.67;24.95;;;8.30;99.90;;;;;;5021976;28;20048;-61
2023/10/20 03:06:46;;;;;;;40.67;23.50;;;8.30;99.90;;;;;;5037951;28;20044;-60
2023/10/20 03:09:13;;;;;;;47.17;24.30;;;8.20;99.90;;;;;;5021060;28;20148;-60
2023/10/20 03:11:39;;;;;;;49.95;24.02;;;8.30;99.90;;;;;;5036579;28;20053;-61
2023/10/20 03:14:05;;;;;;;50.40;25.38;;;8.30;99.90;;;;;;5039688;28;20040;-61
2023/10/20 03:16:31;;;;;;;41.80;22.92;;;8.30;99.90;;;;;;5041259;28;20052;-61
2023/10/20 03:18:57;;;;;;;44.78;23.50;;;8.30;99.90;;;;;;5037227;28;20198;-61
2023/10/20 03:21:23;;;;;;;45.83;24.27;;;8.30;99.90;;;;;;5036501;28;20531;-61
2023/10/20 03:23:49;;;;;;;48.25;24.15;;;8.30;99.90;;;;;;5038278;28;20072;-60
2023/10/20 03:26:15;;;;;;;45.88;24.70;;;8.20;99.90;;;;;;5037776;28;20124;-61
2023/10/20 03:28:41;;;;;;;47.83;23.80;;;8.30;99.90;;;;;;5037446;28;20530;-61
2023/10/20 03:31:07;;;;;;;46.65;25.33;;;8.20;99.90;;;;;;5037726;28;20527;-61
2023/10/20 03:33:33;;;;;;;50.50;25.02;;;8.20;99.90;;;;;;5036228;28;20049;-61
2023/10/20 03:36:05;;;;;;;43.67;23.90;;;8.20;99.90;;;;;;5034551;28;20103;-61
2023/10/20 03:38:32;;;;;;;46.90;25.63;;;8.20;99.90;;;;;;5038676;28;20045;-61
2023/10/20 03:41:06;;;;;;;46.17;24.63;;;8.20;99.90;;;;;;5041813;28;20040;-61
2023/10/20 03:43:32;;;;;;;39.80;22.38;;;8.20;99.90;;;;;;5033186;28;20045;-60
2023/10/20 03:46:00;;;;;;;45.25;24.40;;;8.20;99.90;;;;;;5018121;28;20060;-60
2023/10/20 03:48:29;;;;;;;40.30;24.55;;;8.20;99.90;;;;;;5037109;28;20443;-61
2023/10/20 03:50:55;;;;;;;44.30;25.10;;;8.20;99.90;;;;;;5036214;28;20041;-59
2023/10/20 03:54:05;;;;;;;46.83;24.88;;;8.10;99.90;;;;;;5040908;28;20424;-61
2023/10/20 03:56:09;;;;;;;42.83;23.88;;;8.10;99.90;;;;;;5037813;28;20426;-59
2023/10/20 03:58:36;;;;;;;49.72;25.60;;;8.10;99.90;;;;;;5039407;28;20484;-61
2023/10/20 04:01:02;;;;;;;39.00;23.73;;;8.10;99.90;;;;;;5039906;28;20500;-61
2023/10/20 04:03:31;;;;;;;40.10;21.88;;;8.10;99.90;;;;;;5037019;28;20045;-61
2023/10/20 04:05:57;;;;;;;45.28;24.13;;;8.10;99.90;;;;;;5041845;28;20488;-61
2023/10/20 04:08:24;;;;;;;46.78;23.30;;;8.10;99.90;;;;;;5018551;28;20745;-61
2023/10/20 04:11:00;;;;;;;43.20;24.40;;;8.10;99.90;;;;;;5036351;28;20530;-61
2023/10/20 04:13:26;;;;;;;44.00;24.55;;;8.00;99.90;;;;;;5020428;28;20037;-61
2023/10/20 04:15:55;;;;;;;44.83;24.50;;;8.10;99.90;;;;;;5023781;28;20130;-61
2023/10/20 04:18:22;;;;;;;38.22;21.98;;;8.10;99.90;;;;;;5041433;28;20040;-61
2023/10/20 04:20:48;;;;;;;36.55;21.42;;;8.10;99.90;;;;;;5026463;28;20056;-61
2023/10/20 04:23:16;;;;;;;37.33;22.02;;;8.00;99.90;;;;;;5045075;28;20473;-61
2023/10/20 04:25:55;;;;;;;38.65;22.45;;;8.00;99.90;;;;;;5039022;28;20618;-60
2023/10/20 04:28:42;;;;;;;39.20;21.40;;;8.00;99.90;;;;;;5041337;28;20191;-60
2023/10/20 05:00:41;;;;;;;;;;;8.00;99.90;;;;;;5043504;28;20045;-58
2023/10/20 05:03:18;;;;;;;29.45;18.05;;;8.00;99.90;;;;;;5039984;28;20385;-61
2023/10/20 05:05:52;;;;;;;25.77;17.40;;;8.00;99.90;;;;;;5040753;28;20045;-58
2023/10/20 05:08:18;;;;;;;24.63;16.73;;;8.00;99.90;;;;;;5040201;28;20309;-60
2023/10/20 05:10:44;;;;;;;27.30;18.27;;;8.00;99.90;;;;;;5039345;28;20049;-61
2023/10/20 05:13:11;;;;;;;32.47;18.88;;;8.00;99.90;;;;;;5041869;28;20427;-61
2023/10/20 05:15:40;;;;;;;26.80;17.80;;;8.00;99.90;;;;;;5026550;28;20479;-61
2023/10/20 05:18:14;;;;;;;28.75;17.73;;;8.00;99.90;;;;;;5032944;28;20045;-61
2023/10/20 05:20:41;;;;;;;29.40;22.23;;;8.00;99.90;;;;;;5038246;28;20110;-61
2023/10/20 05:23:08;;;;;;;26.55;19.77;;;8.00;99.90;;;;;;5041453;28;20041;-61
2023/10/20 05:25:34;;;;;;;25.60;17.23;;;8.00;99.90;;;;;;5039500;28;20036;-60
2023/10/20 05:28:03;;;;;;;25.40;15.80;;;7.90;99.90;;;;;;5040307;28;20384;-61
2023/10/20 05:30:28;;;;;;;22.15;15.95;;;8.00;99.90;;;;;;5036173;28;20059;-61
2023/10/20 05:32:54;;;;;;;25.05;15.57;;;8.00;99.90;;;;;;5024911;28;20029;-60
2023/10/20 05:35:20;;;;;;;23.05;16.75;;;8.00;99.90;;;;;;5041029;28;20111;-59
2023/10/20 05:37:45;;;;;;;20.63;14.15;;;8.00;99.90;;;;;;5021788;28;20045;-61
2023/10/20 05:40:15;;;;;;;22.27;15.20;;;8.00;99.90;;;;;;5018992;28;20099;-61
2023/10/20 05:42:40;;;;;;;18.05;14.07;;;8.00;99.90;;;;;;5024350;28;20114;-60
2023/10/20 05:45:10;;;;;;;18.40;13.40;;;8.00;99.90;;;;;;5043570;28;20510;-59
2023/10/20 05:47:36;;;;;;;19.67;13.30;;;8.00;99.90;;;;;;5043414;28;20530;-60
2023/10/20 05:50:02;;;;;;;18.35;12.43;;;8.00;99.90;;;;;;5035260;28;20225;-60
2023/10/20 05:52:29;;;;;;;16.65;11.75;;;8.00;99.90;;;;;;5039101;28;20049;-60
2023/10/20 05:54:59;;;;;;;19.92;13.35;;;8.00;99.90;;;;;;5036723;28;20045;-60
2023/10/20 05:57:26;;;;;;;16.42;11.50;;;8.00;99.90;;;;;;5035006;28;20140;-60
2023/10/20 05:59:51;;;;;;;16.40;11.80;;;8.00;99.90;;;;;;5038129;28;20037;-60
2023/10/20 06:02:18;;;;;;;19.27;12.60;;;8.10;99.90;;;;;;5039037;28;20098;-60
2023/10/20 06:04:43;;;;;;;18.42;12.10;;;8.00;99.90;;;;;;5045179;28;20051;-60
2023/10/20 06:07:09;;;;;;;16.95;11.48;;;8.10;99.90;;;;;;5034334;28;20037;-59
2023/10/20 06:09:35;;;;;;;13.95;10.00;;;8.00;99.90;;;;;;5006069;28;20072;-59
2023/10/20 06:12:02;;;;;;;15.32;10.60;;;8.00;99.90;;;;;;5038835;28;20040;-57
2023/10/20 06:14:28;;;;;;;14.95;11.10;;;8.00;99.90;;;;;;5035468;28;20045;-59
2023/10/20 06:16:53;;;;;;;14.27;10.35;;;8.10;99.90;;;;;;5024458;28;20037;-60
2023/10/20 06:19:19;;;;;;;16.38;10.95;;;8.10;99.90;;;;;;5034488;28;20104;-58
2023/10/20 06:21:46;;;;;;;11.15;9.13;;;8.10;99.90;;;;;;5035081;28;20049;-59
2023/10/20 06:24:13;;;;;;;13.68;9.60;;;8.10;99.90;;;;;;5035482;28;20048;-58
2023/10/20 06:26:39;;;;;;;13.82;9.02;;;8.10;99.90;;;;;;5036368;28;20480;-59
2023/10/20 06:34:46;;;;;;;13.80;8.82;;;8.10;99.90;;;;;;5036988;28;20397;-60
2023/10/20 06:37:37;;;;;;;12.98;9.32;;;8.20;99.90;;;;;;5039197;28;20052;-59
2023/10/20 06:39:57;;;;;;;11.85;7.97;;;8.20;99.90;;;;;;5037918;28;20072;-58
2023/10/20 06:42:24;;;;;;;12.73;7.38;;;8.20;99.90;;;;;;5037894;28;20460;-60
2023/10/20 06:44:50;;;;;;;11.00;7.22;;;8.20;99.90;;;;;;5039247;28;20167;-60
2023/10/20 06:47:16;;;;;;;11.50;7.82;;;8.20;99.90;;;;;;5036880;28;20068;-58
2023/10/20 06:49:42;;;;;;;9.93;7.10;;;8.20;99.90;;;;;;5037310;28;20098;-59
2023/10/20 06:52:08;;;;;;;10.73;6.50;;;8.20;99.90;;;;;;5021693;28;20029;-59
2023/10/20 06:54:34;;;;;;;10.27;6.38;;;8.20;99.90;;;;;;5036248;28;20471;-59
2023/10/20 06:57:00;;;;;;;12.75;6.70;;;8.20;99.90;;;;;;5033460;28;20516;-59
2023/10/20 06:59:26;;;;;;;9.68;5.72;;;8.20;99.90;;;;;;5038658;28;20076;-58
2023/10/20 07:01:56;;;;;;;10.27;5.57;;;8.20;99.90;;;;;;5025111;28;20041;-59
2023/10/20 07:04:21;;;;;;;11.25;5.70;;;8.20;99.90;;;;;;5026546;28;20052;-59
2023/10/20 07:06:49;;;;;;;17.08;5.40;;;8.20;99.90;;;;;;5043557;28;20049;-59
2023/10/20 07:09:14;;;;;;;7.32;4.40;;;8.20;99.90;;;;;;5033875;28;20436;-59
2023/10/20 07:11:41;;;;;;;7.28;4.30;;;8.20;99.90;;;;;;5038175;28;20049;-59
2023/10/20 07:14:07;;;;;;;7.75;4.43;;;8.20;99.90;;;;;;5041106;28;20041;-59
2023/10/20 07:16:34;;;;;;;10.20;4.28;;;8.20;99.90;;;;;;5036228;28;20051;-58
2023/10/20 07:19:03;;;;;;;8.45;4.25;;;8.20;99.90;;;;;;5030464;28;20064;-60
2023/10/20 07:21:30;;;;;;;9.60;5.03;;;8.20;99.90;;;;;;5031939;28;20447;-59
2023/10/20 07:23:55;;;;;;;9.25;4.20;;;8.20;99.90;;;;;;5038720;28;20095;-60
2023/10/20 07:26:22;;;;;;;6.25;4.60;;;8.10;99.90;;;;;;5038655;28;20119;-58
2023/10/20 07:28:48;;;;;;;7.88;4.68;;;8.10;99.90;;;;;;5035372;28;20152;-60
2023/10/20 07:31:17;;;;;;;8.18;4.40;;;8.10;99.90;;;;;;5028367;28;20046;-60
2023/10/20 07:33:43;;;;;;;7.97;4.55;;;8.10;99.90;;;;;;5051009;28;20037;-59
2023/10/20 07:36:10;;;;;;;9.50;4.43;;;8.00;99.90;;;;;;5035144;28;20047;-58
2023/10/20 07:38:36;;;;;;;7.03;4.10;;;8.00;99.90;;;;;;5032710;28;20136;-59
2023/10/20 07:41:11;;;;;;;7.22;3.95;;;8.00;99.90;;;;;;5035796;28;20505;-59
2023/10/20 07:43:37;;;;;;;9.13;4.43;;;8.00;99.90;;;;;;5020702;28;20041;-58
2023/10/20 07:46:03;;;;;;;8.13;4.22;;;8.00;99.90;;;;;;5052028;28;20485;-59
2023/10/20 07:48:32;;;;;;;6.15;4.30;;;7.90;99.90;;;;;;5035951;28;20036;-60
2023/10/20 07:51:01;;;;;;;8.10;3.75;;;7.90;99.90;;;;;;5040689;28;20081;-60
2023/10/20 07:53:29;;;;;;;10.63;4.93;;;8.00;99.90;;;;;;5039827;28;20044;-59
2023/10/20 07:55:55;;;;;;;7.18;4.88;;;8.00;99.90;;;;;;5036813;28;20635;-59
2023/10/20 07:58:21;;;;;;;5.90;3.88;;;7.90;99.90;;;;;;5037207;28;20052;-59
2023/10/20 08:00:47;;;;;;;5.10;3.78;;;7.90;99.90;;;;;;5039565;28;20044;-60
2023/10/20 08:03:12;;;;;;;8.30;3.80;;;7.90;99.90;;;;;;5040467;28;20045;-60
2023/10/20 08:05:39;;;;;;;6.07;3.42;;;7.90;99.90;;;;;;5035939;28;20099;-58
2023/10/20 08:08:05;;;;;;;7.28;4.25;;;7.90;99.90;;;;;;5032712;28;20033;-59
2023/10/20 08:10:32;;;;;;;7.60;4.07;;;7.80;99.90;;;;;;5026267;28;20052;-60
2023/10/20 08:12:59;;;;;;;7.78;4.03;;;7.80;99.90;;;;;;5033960;28;20428;-59
2023/10/20 08:15:31;;;;;;;6.53;3.58;;;7.80;99.90;;;;;;5040569;28;20036;-59
2023/10/20 08:17:56;;;;;;;5.80;3.85;;;7.80;99.90;;;;;;5034108;28;20083;-60
2023/10/20 08:20:23;;;;;;;6.88;3.45;;;7.80;99.90;;;;;;5054730;28;20041;-60
2023/10/20 08:22:48;;;;;;;5.82;3.72;;;7.80;99.90;;;;;;5023858;28;20045;-60
2023/10/20 08:25:15;;;;;;;5.32;3.35;;;7.80;99.90;;;;;;5034650;28;20057;-60
2023/10/20 08:27:41;;;;;;;7.68;4.20;;;7.80;99.90;;;;;;5042832;28;20116;-59
2023/10/20 08:30:08;;;;;;;6.80;4.63;;;7.80;99.90;;;;;;5041144;28;20173;-60
2023/10/20 08:32:34;;;;;;;6.53;4.47;;;7.80;99.90;;;;;;5040340;28;20040;-60
2023/10/20 08:35:00;;;;;;;6.88;4.10;;;7.80;99.90;;;;;;5021002;28;20049;-60
2023/10/20 08:37:26;;;;;;;6.28;4.63;;;7.80;99.90;;;;;;5034243;28;20070;-59
2023/10/20 08:39:54;;;;;;;9.30;4.45;;;7.80;99.90;;;;;;5034538;28;20526;-61
2023/10/20 08:42:21;;;;;;;9.82;5.40;;;7.80;99.90;;;;;;5040346;28;20388;-60
2023/10/20 08:44:49;;;;;;;5.93;4.68;;;7.70;99.90;;;;;;5020072;28;20048;-61
2023/10/20 08:47:19;;;;;;;7.50;4.65;;;7.80;99.90;;;;;;5036520;28;20053;-59
2023/10/20 08:49:46;;;;;;;7.55;4.05;;;7.70;99.90;;;;;;5033145;28;20059;-60
2023/10/20 08:52:12;;;;;;;7.55;4.75;;;7.70;99.90;;;;;;5035386;28;20111;-59
2023/10/20 08:54:38;;;;;;;6.70;4.47;;;7.70;99.90;;;;;;5025242;28;20051;-57
2023/10/20 08:57:05;;;;;;;6.72;4.75;;;7.70;99.90;;;;;;5038160;28;20680;-58
2023/10/20 08:59:35;;;;;;;5.60;3.30;;;7.70;99.90;;;;;;5040926;28;20434;-59
2023/10/20 09:02:02;;;;;;;4.57;3.28;;;7.70;99.90;;;;;;5035917;28;20076;-59
2023/10/20 09:04:28;;;;;;;5.20;3.60;;;7.70;99.90;;;;;;5035747;28;20049;-59
2023/10/20 09:06:54;;;;;;;4.53;3.15;;;7.70;99.90;;;;;;5019189;28;20124;-58
2023/10/20 09:09:20;;;;;;;5.90;2.92;;;7.70;99.90;;;;;;5050223;28;20136;-58
2023/10/20 09:11:47;;;;;;;4.22;3.03;;;7.70;99.90;;;;;;5036272;28;20080;-58
2023/10/20 09:14:14;;;;;;;4.50;2.75;;;7.70;99.90;;;;;;5035924;28;20581;-59
2023/10/20 09:16:40;;;;;;;3.88;2.38;;;7.70;99.90;;;;;;5036040;28;20041;-59
2023/10/20 09:19:11;;;;;;;5.63;2.53;;;7.70;99.90;;;;;;5052743;28;20047;-60
2023/10/20 09:21:41;;;;;;;3.72;2.42;;;7.70;99.90;;;;;;5045631;28;20536;-59
2023/10/20 09:24:09;;;;;;;4.43;2.53;;;7.70;99.90;;;;;;5032695;28;20040;-59
2023/10/20 09:26:37;;;;;;;3.33;1.90;;;7.70;99.90;;;;;;5041166;28;20693;-59
2023/10/20 09:29:07;;;;;;;3.05;1.90;;;7.60;99.90;;;;;;5041576;28;20048;-58
2023/10/20 09:31:34;;;;;;;3.70;2.10;;;7.70;99.90;;;;;;5040782;28;20170;-60
2023/10/20 09:34:01;;;;;;;3.72;2.00;;;7.70;99.90;;;;;;5036880;28;20045;-60
2023/10/20 09:36:30;;;;;;;3.78;1.70;;;7.70;99.90;;;;;;5030544;28;20119;-59
2023/10/20 09:38:57;;;;;;;3.05;1.73;;;7.70;99.90;;;;;;5030676;28;20033;-60
2023/10/20 09:41:25;;;;;;;3.90;2.30;;;7.60;99.90;;;;;;5036884;28;20045;-59
2023/10/20 09:44:08;;;;;;;3.85;2.35;;;7.60;99.90;;;;;;5041004;28;20033;-58
2023/10/20 09:46:40;;;;;;;2.92;1.60;;;7.60;99.90;;;;;;5038173;28;20045;-58
2023/10/20 09:49:14;;;;;;;3.20;2.15;;;7.60;99.90;;;;;;5044455;28;20064;-59
2023/10/20 09:51:44;;;;;;;4.20;2.50;;;7.60;99.90;;;;;;5039055;28;20037;-58
2023/10/20 09:54:15;;;;;;;3.78;1.88;;;7.60;99.90;;;;;;5034235;28;20065;-59
2023/10/20 09:56:43;;;;;;;3.00;1.85;;;7.60;99.90;;;;;;5039218;28;20045;-60
2023/10/20 09:59:09;;;;;;;4.00;1.90;;;7.60;99.90;;;;;;5040015;28;20075;-60
2023/10/20 10:01:37;;;;;;;3.97;1.80;;;7.60;99.90;;;;;;5035220;28;20366;-60
2023/10/20 10:04:05;;;;;;;3.10;1.80;;;7.60;99.90;;;;;;5040623;28;20132;-59
2023/10/20 10:06:35;;;;;;;4.55;1.67;;;7.60;99.90;;;;;;5042664;28;20098;-58
2023/10/20 10:09:04;;;;;;;2.85;1.52;;;7.60;99.90;;;;;;5038003;28;20053;-57
2023/10/20 10:11:31;;;;;;;3.88;1.73;;;7.60;99.90;;;;;;5028571;28;20083;-58
2023/10/20 10:14:04;;;;;;;2.78;1.88;;;7.50;99.90;;;;;;5035527;28;20404;-59
2023/10/20 10:16:30;;;;;;;1.70;1.35;;;7.50;99.90;;;;;;5043127;28;20056;-58
2023/10/20 10:19:09;;;;;;;2.55;1.42;;;7.50;99.90;;;;;;5037942;28;20107;-60
2023/10/20 10:21:39;;;;;;;1.50;1.10;;;7.50;99.90;;;;;;5037412;28;20048;-61
2023/10/20 10:24:17;;;;;;;3.30;1.73;;;7.40;99.90;;;;;;5037098;28;20063;-60
2023/10/20 10:26:45;;;;;;;3.42;1.50;;;7.50;99.90;;;;;;5034843;28;20057;-61
2023/10/20 10:29:11;;;;;;;2.88;1.85;;;7.50;99.90;;;;;;5036041;28;20041;-59
2023/10/20 10:31:37;;;;;;;3.03;1.40;;;7.40;99.90;;;;;;5034746;28;20072;-60
2023/10/20 10:34:05;;;;;;;2.67;1.30;;;7.50;99.90;;;;;;5039832;28;20032;-59
2023/10/20 10:36:47;;;;;;;3.90;1.23;;;7.50;99.90;;;;;;5036120;28;20124;-59
2023/10/20 10:39:29;;;;;;;3.05;1.25;;;7.50;99.90;;;;;;5041394;28;20045;-59
2023/10/20 10:42:03;;;;;;;2.53;1.08;;;7.40;99.90;;;;;;5038520;28;20049;-59
2023/10/20 10:44:36;;;;;;;2.10;1.27;;;7.40;99.90;;;;;;5034952;28;20512;-59
2023/10/20 10:47:06;;;;;;;1.63;1.00;;;7.40;99.90;;;;;;5020358;28;20044;-62
2023/10/20 10:49:32;;;;;;;3.40;1.35;;;7.40;99.90;;;;;;5024591;28;20048;-61
2023/10/20 10:52:04;;;;;;;1.98;1.00;;;7.40;99.90;;;;;;5039498;28;20040;-59
2023/10/20 10:54:33;;;;;;;2.92;1.25;;;7.40;99.90;;;;;;5022643;28;20053;-59
2023/10/20 10:57:03;;;;;;;2.40;1.25;;;7.40;99.90;;;;;;5038741;28;20044;-59
2023/10/20 10:59:30;;;;;;;2.33;1.33;;;7.40;99.90;;;;;;5040082;28;20045;-58
2023/10/20 11:01:57;;;;;;;3.03;1.30;;;7.40;99.90;;;;;;5028188;28;20127;-59
2023/10/20 11:04:23;;;;;;;2.28;1.15;;;7.30;99.90;;;;;;5036733;28;20041;-60
2023/10/20 11:06:49;;;;;;;2.88;1.30;;;7.30;99.90;;;;;;5037834;28;20484;-60
2023/10/20 11:09:19;;;;;;;2.60;1.38;;;7.30;99.90;;;;;;5040357;28;20044;-59
2023/10/20 11:11:48;;;;;;;2.25;1.40;;;7.30;99.90;;;;;;5033823;28;20037;-59
2023/10/20 11:14:21;;;;;;;2.33;1.10;;;7.30;99.90;;;;;;5041682;28;20049;-56
2023/10/20 11:16:47;;;;;;;1.17;0.80;;;7.30;99.90;;;;;;5039847;28;20365;-60
2023/10/20 11:19:14;;;;;;;2.08;1.50;;;7.30;99.90;;;;;;5043307;28;20518;-56
2023/10/20 11:21:51;;;;;;;2.25;1.15;;;7.30;99.90;;;;;;5032827;28;20044;-60
2023/10/20 11:24:34;;;;;;;1.48;0.90;;;7.30;99.90;;;;;;5033448;28;20466;-61
2023/10/20 11:27:11;;;;;;;2.53;0.95;;;7.30;99.90;;;;;;5041701;28;20041;-59
2023/10/20 11:29:37;;;;;;;1.58;0.90;;;7.30;99.90;;;;;;5028998;28;20040;-59
2023/10/20 11:32:13;;;;;;;1.80;1.13;;;7.20;99.90;;;;;;5061007;28;20463;-59
2023/10/20 11:34:39;;;;;;;1.83;0.90;;;7.30;99.90;;;;;;5042766;28;20488;-59
2023/10/20 11:37:06;;;;;;;1.90;0.68;;;7.30;99.90;;;;;;5043989;28;20052;-59
2023/10/20 11:39:36;;;;;;;1.58;0.77;;;7.20;99.90;;;;;;5027706;28;20036;-59
2023/10/20 11:42:02;;;;;;;1.95;0.88;;;7.20;99.90;;;;;;5058366;28;20049;-59
2023/10/20 11:44:28;;;;;;;1.90;0.70;;;7.20;99.90;;;;;;5046694;28;20610;-59
2023/10/20 11:46:55;;;;;;;1.45;0.82;;;7.20;99.90;;;;;;5038939;28;20041;-59
2023/10/20 11:49:27;;;;;;;1.38;0.70;;;7.20;99.90;;;;;;5049900;28;20865;-59
2023/10/20 11:51:53;;;;;;;3.42;0.70;;;7.20;99.90;;;;;;5042329;28;20033;-60
2023/10/20 11:54:19;;;;;;;1.33;0.68;;;7.20;99.90;;;;;;5044172;28;20056;-59
2023/10/20 11:56:45;;;;;;;1.20;0.65;;;7.30;99.90;;;;;;5041568;28;20506;-59
2023/10/20 11:59:15;;;;;;;6.63;2.95;;;7.20;99.90;;;;;;5034275;28;20744;-59
2023/10/20 12:01:41;;;;;;;7.13;4.25;;;7.30;99.90;;;;;;5045106;28;20053;-60
2023/10/20 12:04:08;;;;;;;3.42;1.90;;;7.30;99.90;;;;;;5038221;28;20041;-59
2023/10/20 12:06:38;;;;;;;1.25;1.00;;;7.30;99.90;;;;;;5045181;28;20108;-59
2023/10/20 12:09:08;;;;;;;5.60;1.15;;;7.30;99.90;;;;;;5024917;28;20046;-58
2023/10/20 12:11:38;;;;;;;1.90;1.23;;;7.20;99.90;;;;;;5047336;28;20134;-60
2023/10/20 12:14:04;;;;;;;1.42;0.98;;;7.20;99.90;;;;;;5044575;28;20056;-59
2023/10/20 12:16:30;;;;;;;2.00;0.88;;;7.20;99.90;;;;;;5043922;28;20070;-59
2023/10/20 12:19:01;;;;;;;1.52;0.80;;;7.20;99.90;;;;;;5013971;28;20120;-59
2023/10/20 12:21:28;;;;;;;2.20;0.80;;;7.20;99.90;;;;;;5043109;28;20055;-59
2023/10/20 12:23:54;;;;;;;1.10;0.80;;;7.20;99.90;;;;;;5031722;28;20056;-59
2023/10/20 12:26:20;;;;;;;2.75;1.10;;;7.30;99.90;;;;;;5046083;28;20037;-59
2023/10/20 12:28:46;;;;;;;3.00;0.70;;;7.30;99.90;;;;;;5042647;28;20151;-59
2023/10/20 12:31:12;;;;;;;0.73;0.70;;;7.20;99.90;;;;;;5044133;28;20520;-59
2023/10/20 12:33:37;;;;;;;1.48;0.80;;;7.20;99.90;;;;;;5022312;28;20038;-59
2023/10/20 12:36:03;;;;;;;1.65;0.70;;;7.20;99.90;;;;;;5041493;28;20048;-59
2023/10/20 12:38:30;;;;;;;2.00;0.82;;;7.20;99.90;;;;;;5020886;28;20045;-59
2023/10/20 12:40:56;;;;;;;2.17;0.80;;;7.30;99.90;;;;;;5040969;28;20077;-59
2023/10/20 12:43:21;;;;;;;1.45;1.00;;;7.20;99.90;;;;;;5040739;28;20227;-59
2023/10/20 12:45:47;;;;;;;1.40;0.73;;;7.20;99.90;;;;;;5023337;28;20496;-59
2023/10/20 12:48:14;;;;;;;1.33;0.85;;;7.30;99.90;;;;;;5035861;28;20310;-59
2023/10/20 12:50:39;;;;;;;2.78;1.60;;;7.30;99.90;;;;;;5019532;28;20531;-59
2023/10/20 12:53:07;;;;;;;0.70;0.60;;;7.30;99.90;;;;;;5053906;28;20041;-58
2023/10/20 12:55:33;;;;;;;1.95;0.63;;;7.20;99.90;;;;;;5039732;28;20548;-59
2023/10/20 12:57:59;;;;;;;1.58;0.70;;;7.20;99.90;;;;;;5040072;28;20520;-58
2023/10/20 13:00:25;;;;;;;1.33;0.70;;;7.30;99.90;;;;;;5043026;28;20041;-59
2023/10/20 13:02:52;;;;;;;1.10;0.57;;;7.20;99.90;;;;;;5036599;28;22149;-60
2023/10/20 13:05:21;;;;;;;1.40;0.80;;;7.20;99.90;;;;;;5022659;28;20163;-59
2023/10/20 13:07:50;;;;;;;1.20;0.70;;;7.20;99.90;;;;;;5040054;28;20044;-58
2023/10/20 13:10:17;;;;;;;1.30;0.77;;;7.20;99.90;;;;;;5038716;28;20514;-59
2023/10/20 13:12:42;;;;;;;0.70;0.60;;;7.20;99.90;;;;;;5021519;28;20070;-59
2023/10/20 13:15:09;;;;;;;1.20;0.60;;;7.20;99.90;;;;;;5025202;28;20041;-59
2023/10/20 13:17:36;;;;;;;1.20;0.60;;;7.20;99.90;;;;;;5038771;28;20052;-58
2023/10/20 13:20:03;;;;;;;0.65;0.57;;;7.10;99.90;;;;;;5037870;28;20087;-60
2023/10/20 13:22:30;;;;;;;1.00;0.50;;;7.20;99.90;;;;;;5019796;28;20044;-60
2023/10/20 13:24:56;;;;;;;0.90;0.57;;;7.10;99.90;;;;;;5038450;28;20155;-60